Time;durP1;ratioP1;P1;durP2;ratioP2;P2;SDS_P1;SDS_P2;PMS_P1;PMS_P2;Temp;Humidity;BMP_temperature;BMP_pressure;BME280_temperature;BME280_humidity;BME280_pressure;Samples;Min_cycle;Max_cycle;Signal;HPM_P1;HPM_P2
2021/09/15 00:01:38;;;;;;;4.55;1.98;;;;;;;;;;5030222;28;20262;-57
2021/09/15 00:04:04;;;;;;;5.18;1.00;;;;;;;;;;5033376;28;20052;-55
2021/09/15 00:06:29;;;;;;;4.53;1.20;;;;;;;;;;5047616;28;20033;-55
2021/09/15 00:08:55;;;;;;;3.45;1.00;;;;;;;;;;5046991;28;20047;-55
2021/09/15 00:11:22;;;;;;;7.63;1.17;;;;;;;;;;5047857;28;20037;-54
2021/09/15 00:13:48;;;;;;;3.20;0.88;;;;;;;;;;5050573;28;20033;-56
2021/09/15 00:16:14;;;;;;;3.28;1.00;;;;;;;;;;5051179;28;20048;-56
2021/09/15 00:18:40;;;;;;;3.00;0.80;;;;;;;;;;5051528;28;20139;-55
2021/09/15 00:21:06;;;;;;;5.70;1.40;;;;;;;;;;5051897;28;20033;-54
2021/09/15 00:23:32;;;;;;;4.60;1.50;;;;;;;;;;5049884;28;20095;-56
2021/09/15 00:25:58;;;;;;;4.82;1.00;;;;;;;;;;5050345;28;20088;-55
2021/09/15 00:28:24;;;;;;;6.32;1.05;;;;;;;;;;5051361;28;20037;-56
2021/09/15 00:30:51;;;;;;;3.63;1.20;;;;;;;;;;5052005;28;21296;-54
2021/09/15 00:33:16;;;;;;;4.05;1.05;;;;;;;;;;5040914;28;20056;-55
2021/09/15 00:35:42;;;;;;;4.63;1.15;;;;;;;;;;5054865;28;20045;-55
2021/09/15 00:38:08;;;;;;;5.68;1.20;;;;;;;;;;5052703;28;20025;-55
2021/09/15 00:40:34;;;;;;;3.03;0.93;;;;;;;;;;5050510;28;20072;-55
2021/09/15 00:43:00;;;;;;;4.20;0.90;;;;;;;;;;5052091;28;22049;-53
2021/09/15 00:45:25;;;;;;;8.77;0.98;;;;;;;;;;5048639;28;20048;-55
2021/09/15 00:47:51;;;;;;;3.72;0.85;;;;;;;;;;5051366;28;20103;-55
2021/09/15 00:50:17;;;;;;;3.63;1.00;;;;;;;;;;5050958;28;20130;-54
2021/09/15 00:52:43;;;;;;;4.50;1.00;;;;;;;;;;5050849;28;20044;-53
2021/09/15 00:55:09;;;;;;;3.70;1.00;;;;;;;;;;5054462;28;20315;-56
2021/09/15 00:57:35;;;;;;;2.83;0.90;;;;;;;;;;5050861;28;20041;-55
2021/09/15 01:00:01;;;;;;;3.55;1.17;;;;;;;;;;5052397;28;20499;-56
2021/09/15 01:02:27;;;;;;;4.25;1.20;;;;;;;;;;5051025;28;20250;-55
2021/09/15 01:04:53;;;;;;;2.42;0.73;;;;;;;;;;5050545;28;20584;-57
2021/09/15 01:07:19;;;;;;;2.35;0.70;;;;;;;;;;5048999;28;20036;-56
2021/09/15 01:09:46;;;;;;;4.03;0.90;;;;;;;;;;5051567;28;20434;-56
2021/09/15 01:12:13;;;;;;;4.85;1.20;;;;;;;;;;5051768;28;20083;-53
2021/09/15 01:14:40;;;;;;;4.07;0.88;;;;;;;;;;5051679;28;20048;-54
2021/09/15 01:17:06;;;;;;;2.72;0.90;;;;;;;;;;5049509;28;20396;-55
2021/09/15 01:19:32;;;;;;;3.38;0.90;;;;;;;;;;5049694;28;20136;-56
2021/09/15 01:21:58;;;;;;;4.80;1.50;;;;;;;;;;5048636;28;20063;-56
2021/09/15 01:24:25;;;;;;;3.42;0.98;;;;;;;;;;5049878;28;20055;-56
2021/09/15 01:26:52;;;;;;;4.85;1.08;;;;;;;;;;5049612;28;20128;-55
2021/09/15 01:29:19;;;;;;;5.35;0.95;;;;;;;;;;5033337;28;20393;-55
2021/09/15 01:32:06;;;;;;;4.13;1.38;;;;;;;;;;5051536;28;20037;-56
2021/09/15 01:34:34;;;;;;;2.53;0.75;;;;;;;;;;5050360;28;20033;-55
2021/09/15 01:37:00;;;;;;;3.03;0.80;;;;;;;;;;5034591;28;20036;-54
2021/09/15 01:39:25;;;;;;;1.60;0.60;;;;;;;;;;5049382;28;20045;-56
2021/09/15 01:41:55;;;;;;;2.40;0.80;;;;;;;;;;5049715;28;20571;-56
2021/09/15 01:44:28;;;;;;;3.42;0.90;;;;;;;;;;5038542;28;20576;-55
2021/09/15 01:46:54;;;;;;;4.22;0.85;;;;;;;;;;5052742;28;20036;-55
2021/09/15 01:49:20;;;;;;;4.35;1.17;;;;;;;;;;5030210;28;20037;-55
2021/09/15 01:51:46;;;;;;;3.53;1.13;;;;;;;;;;5051339;28;20040;-55
2021/09/15 01:54:11;;;;;;;6.10;1.10;;;;;;;;;;5050647;28;20041;-55
2021/09/15 01:56:37;;;;;;;3.22;1.00;;;;;;;;;;5035162;28;20493;-56
2021/09/15 01:59:03;;;;;;;5.25;0.95;;;;;;;;;;5050357;28;20070;-56
2021/09/15 02:01:29;;;;;;;3.72;0.90;;;;;;;;;;5050865;28;20099;-57
2021/09/15 02:03:55;;;;;;;4.93;1.48;;;;;;;;;;5047055;28;20067;-58
2021/09/15 02:06:21;;;;;;;4.38;1.30;;;;;;;;;;5049121;28;20056;-57
2021/09/15 02:08:46;;;;;;;5.28;1.42;;;;;;;;;;5050171;28;20044;-56
2021/09/15 02:11:12;;;;;;;3.78;1.17;;;;;;;;;;5047976;28;20045;-57
2021/09/15 02:13:38;;;;;;;3.78;1.10;;;;;;;;;;5048457;28;20036;-57
2021/09/15 02:16:04;;;;;;;3.40;1.00;;;;;;;;;;5048516;28;20067;-56
2021/09/15 02:18:29;;;;;;;3.85;1.02;;;;;;;;;;5048932;28;20040;-57
2021/09/15 02:20:55;;;;;;;3.10;0.93;;;;;;;;;;5049383;28;20060;-57
2021/09/15 02:23:21;;;;;;;3.22;0.90;;;;;;;;;;5048695;28;20057;-57
2021/09/15 02:25:47;;;;;;;4.95;0.90;;;;;;;;;;5049449;28;20045;-56
2021/09/15 02:28:13;;;;;;;3.00;0.85;;;;;;;;;;5047709;28;20045;-57
2021/09/15 02:30:38;;;;;;;3.10;1.00;;;;;;;;;;5046925;28;20052;-57
2021/09/15 02:33:04;;;;;;;2.63;0.65;;;;;;;;;;5048459;28;20035;-57
2021/09/15 02:35:30;;;;;;;5.47;1.15;;;;;;;;;;5048465;28;20036;-57
2021/09/15 02:37:56;;;;;;;3.38;0.90;;;;;;;;;;5049094;28;20040;-57
2021/09/15 02:40:22;;;;;;;8.48;1.00;;;;;;;;;;5048890;28;20033;-59
2021/09/15 02:42:47;;;;;;;2.85;0.93;;;;;;;;;;5049328;28;20037;-58
2021/09/15 02:45:13;;;;;;;2.90;1.00;;;;;;;;;;5049249;28;20044;-57
2021/09/15 02:47:39;;;;;;;7.25;1.13;;;;;;;;;;5048868;28;20086;-56
2021/09/15 02:50:05;;;;;;;6.70;1.35;;;;;;;;;;5032329;28;20056;-58
2021/09/15 02:52:31;;;;;;;3.50;0.93;;;;;;;;;;5048572;28;20032;-56
2021/09/15 02:54:57;;;;;;;2.78;0.90;;;;;;;;;;5048420;28;20079;-57
2021/09/15 02:57:22;;;;;;;3.65;0.90;;;;;;;;;;5047805;28;20044;-57
2021/09/15 02:59:48;;;;;;;4.60;1.05;;;;;;;;;;5049305;28;20040;-57
2021/09/15 03:02:14;;;;;;;4.10;0.80;;;;;;;;;;5047374;28;20364;-58
2021/09/15 03:04:40;;;;;;;3.55;1.00;;;;;;;;;;5047982;28;20051;-55
2021/09/15 03:07:05;;;;;;;3.88;0.93;;;;;;;;;;5048715;28;20386;-56
2021/09/15 03:09:31;;;;;;;4.75;1.10;;;;;;;;;;5047581;28;20354;-56
2021/09/15 03:11:57;;;;;;;5.07;0.98;;;;;;;;;;5048375;28;20037;-57
2021/09/15 03:14:23;;;;;;;4.40;1.25;;;;;;;;;;5049279;28;20103;-57
2021/09/15 03:16:49;;;;;;;3.00;1.10;;;;;;;;;;5048286;28;20047;-56
2021/09/15 03:19:14;;;;;;;6.50;1.65;;;;;;;;;;5051609;28;20652;-57
2021/09/15 03:21:41;;;;;;;4.72;1.50;;;;;;;;;;5047715;28;20040;-57
2021/09/15 03:24:07;;;;;;;4.07;1.20;;;;;;;;;;5048877;28;20915;-56
2021/09/15 03:26:33;;;;;;;5.50;1.20;;;;;;;;;;5048126;28;20060;-57
2021/09/15 03:28:59;;;;;;;3.47;1.15;;;;;;;;;;5049672;28;20137;-57
2021/09/15 03:31:25;;;;;;;4.78;1.10;;;;;;;;;;5045761;28;20037;-55
2021/09/15 03:33:50;;;;;;;3.08;1.00;;;;;;;;;;5050260;28;20064;-56
2021/09/15 03:36:16;;;;;;;4.05;1.20;;;;;;;;;;5047996;28;20048;-55
2021/09/15 03:38:42;;;;;;;3.38;1.00;;;;;;;;;;5049260;28;20040;-55
2021/09/15 03:41:08;;;;;;;6.57;1.23;;;;;;;;;;5049002;28;20085;-56
2021/09/15 03:43:33;;;;;;;9.13;1.30;;;;;;;;;;5046965;28;20055;-56
2021/09/15 03:45:59;;;;;;;3.08;1.08;;;;;;;;;;5045841;28;20691;-53
2021/09/15 03:48:25;;;;;;;4.65;1.20;;;;;;;;;;5046523;28;20028;-55
2021/09/15 03:50:51;;;;;;;5.70;1.48;;;;;;;;;;5046497;28;20532;-56
2021/09/15 03:53:17;;;;;;;3.55;1.08;;;;;;;;;;5031393;28;20412;-56
2021/09/15 03:55:42;;;;;;;3.42;1.23;;;;;;;;;;5047897;28;20068;-56
2021/09/15 03:58:08;;;;;;;4.50;1.42;;;;;;;;;;5047515;28;20045;-56
2021/09/15 04:00:34;;;;;;;3.80;1.23;;;;;;;;;;5046919;28;20488;-53
2021/09/15 04:03:00;;;;;;;5.97;1.30;;;;;;;;;;5049585;28;20047;-56
2021/09/15 04:05:26;;;;;;;6.97;1.23;;;;;;;;;;5047833;28;20049;-56
2021/09/15 04:07:52;;;;;;;4.30;1.40;;;;;;;;;;5048524;28;20059;-55
2021/09/15 04:10:17;;;;;;;8.23;1.13;;;;;;;;;;5046706;28;20480;-56
2021/09/15 04:12:43;;;;;;;5.40;1.45;;;;;;;;;;5047851;28;20048;-55
2021/09/15 04:15:09;;;;;;;6.50;1.25;;;;;;;;;;5048493;28;20040;-56
2021/09/15 04:17:35;;;;;;;5.78;1.30;;;;;;;;;;5046016;28;20045;-56
2021/09/15 04:20:01;;;;;;;4.13;1.50;;;;;;;;;;5046880;28;20091;-55
2021/09/15 04:22:26;;;;;;;4.22;1.52;;;;;;;;;;5045738;28;20067;-56
2021/09/15 04:33:05;;;;;;;4.72;1.55;;;;;;;;;;5047085;28;20480;-55
2021/09/15 04:35:31;;;;;;;5.72;1.50;;;;;;;;;;5047805;28;20136;-55
2021/09/15 04:37:57;;;;;;;5.93;1.40;;;;;;;;;;5049555;28;20061;-56
2021/09/15 04:40:22;;;;;;;5.72;1.60;;;;;;;;;;5035133;28;20136;-57
2021/09/15 04:42:48;;;;;;;3.95;1.50;;;;;;;;;;5046705;28;20059;-56
2021/09/15 04:45:14;;;;;;;5.43;1.75;;;;;;;;;;5049036;28;20048;-55
2021/09/15 04:47:40;;;;;;;5.68;1.67;;;;;;;;;;5048792;28;20124;-53
2021/09/15 04:50:06;;;;;;;7.60;1.70;;;;;;;;;;5048332;28;20044;-59
2021/09/15 04:52:32;;;;;;;3.78;1.50;;;;;;;;;;5045703;28;20675;-56
2021/09/15 04:54:57;;;;;;;4.47;1.60;;;;;;;;;;5047535;28;20051;-55
2021/09/15 04:57:23;;;;;;;5.47;1.50;;;;;;;;;;5049664;28;20171;-56
2021/09/15 04:59:49;;;;;;;2.70;1.08;;;;;;;;;;5050481;28;20392;-56
2021/09/15 05:02:15;;;;;;;3.92;1.10;;;;;;;;;;5049106;28;20111;-56
2021/09/15 05:04:40;;;;;;;3.80;0.85;;;;;;;;;;5050376;28;20064;-56
2021/09/15 05:07:06;;;;;;;3.58;1.20;;;;;;;;;;5051684;28;20514;-56
2021/09/15 05:09:32;;;;;;;3.15;1.10;;;;;;;;;;5048868;28;20482;-56
2021/09/15 05:11:58;;;;;;;3.67;1.20;;;;;;;;;;5050693;28;20044;-56
2021/09/15 05:14:24;;;;;;;3.20;1.20;;;;;;;;;;5049479;28;20041;-56
2021/09/15 05:16:49;;;;;;;3.63;1.23;;;;;;;;;;5050879;28;20057;-56
2021/09/15 05:19:15;;;;;;;2.83;1.10;;;;;;;;;;5049828;28;20432;-55
2021/09/15 05:21:41;;;;;;;3.38;1.05;;;;;;;;;;5049005;28;20071;-55
2021/09/15 05:24:07;;;;;;;6.82;1.13;;;;;;;;;;5050181;28;20493;-55
2021/09/15 05:26:33;;;;;;;5.32;1.13;;;;;;;;;;5049881;28;20607;-56
2021/09/15 05:28:58;;;;;;;5.32;1.00;;;;;;;;;;5050296;28;20059;-56
2021/09/15 05:31:24;;;;;;;3.78;1.10;;;;;;;;;;5049360;28;20096;-56
2021/09/15 05:33:50;;;;;;;5.13;1.00;;;;;;;;;;5050264;28;20040;-56
2021/09/15 05:36:16;;;;;;;3.83;1.05;;;;;;;;;;5051189;28;20170;-56
2021/09/15 05:38:41;;;;;;;3.45;0.90;;;;;;;;;;5050169;28;20071;-55
2021/09/15 05:41:07;;;;;;;2.95;0.98;;;;;;;;;;5050627;28;20052;-55
2021/09/15 05:43:34;;;;;;;3.88;1.08;;;;;;;;;;5049145;28;20104;-57
2021/09/15 05:46:00;;;;;;;4.25;1.20;;;;;;;;;;5049267;28;20049;-57
2021/09/15 05:48:25;;;;;;;4.45;1.23;;;;;;;;;;5047786;28;20623;-56
2021/09/15 05:50:51;;;;;;;4.60;1.30;;;;;;;;;;5048433;28;20044;-56
2021/09/15 05:53:17;;;;;;;3.58;1.13;;;;;;;;;;5048818;28;20564;-56
2021/09/15 05:55:43;;;;;;;3.75;1.20;;;;;;;;;;5010707;28;20076;-56
2021/09/15 05:58:09;;;;;;;4.20;1.10;;;;;;;;;;5029160;28;20037;-55
2021/09/15 06:00:34;;;;;;;3.17;1.10;;;;;;;;;;5029966;28;20056;-55
2021/09/15 06:03:00;;;;;;;4.80;1.02;;;;;;;;;;5048994;28;20135;-55
2021/09/15 06:05:26;;;;;;;3.75;1.38;;;;;;;;;;5048071;28;20622;-56
2021/09/15 06:07:52;;;;;;;5.18;1.30;;;;;;;;;;5049539;28;20093;-56
2021/09/15 06:10:17;;;;;;;3.83;1.30;;;;;;;;;;5048375;28;20573;-56
2021/09/15 06:12:43;;;;;;;3.33;1.05;;;;;;;;;;5049498;28;20037;-56
2021/09/15 06:15:09;;;;;;;3.20;1.20;;;;;;;;;;5047861;28;20444;-56
2021/09/15 06:17:35;;;;;;;4.65;1.35;;;;;;;;;;5047460;28;20429;-55
2021/09/15 06:20:01;;;;;;;4.00;1.15;;;;;;;;;;5049088;28;20040;-55
2021/09/15 06:22:27;;;;;;;6.60;1.48;;;;;;;;;;5046895;28;20037;-52
2021/09/15 06:24:58;;;;;;;3.50;1.27;;;;;;;;;;5048900;28;20084;-56
2021/09/15 06:27:23;;;;;;;5.15;1.50;;;;;;;;;;5047830;28;20118;-55
2021/09/15 06:29:49;;;;;;;3.92;1.50;;;;;;;;;;5048389;28;20040;-56
2021/09/15 06:32:25;;;;;;;6.75;1.35;;;;;;;;;;5048608;28;20037;-56
2021/09/15 06:34:51;;;;;;;5.22;1.65;;;;;;;;;;5047499;28;20043;-55
2021/09/15 06:37:17;;;;;;;4.55;1.52;;;;;;;;;;5047408;28;20045;-56
2021/09/15 06:39:43;;;;;;;7.97;1.42;;;;;;;;;;5048178;28;20110;-56
2021/09/15 06:42:09;;;;;;;4.53;1.42;;;;;;;;;;5048181;28;20098;-56
2021/09/15 06:44:35;;;;;;;7.90;1.85;;;;;;;;;;5046958;28;20416;-56
2021/09/15 06:47:00;;;;;;;12.32;1.52;;;;;;;;;;5049119;28;20599;-55
2021/09/15 06:49:26;;;;;;;8.10;1.88;;;;;;;;;;5047455;28;20029;-56
2021/09/15 06:51:52;;;;;;;3.55;1.25;;;;;;;;;;5046840;28;20531;-56
2021/09/15 06:54:18;;;;;;;6.47;1.63;;;;;;;;;;5047728;28;20044;-55
2021/09/15 06:56:45;;;;;;;4.35;1.58;;;;;;;;;;5047064;28;20071;-55
2021/09/15 06:59:11;;;;;;;10.50;1.55;;;;;;;;;;5048563;28;20052;-56
2021/09/15 07:01:37;;;;;;;4.35;1.48;;;;;;;;;;5046741;28;20040;-56
2021/09/15 07:04:03;;;;;;;4.03;1.27;;;;;;;;;;5046891;28;20044;-56
2021/09/15 07:06:29;;;;;;;3.90;1.45;;;;;;;;;;5044319;28;20049;-55
2021/09/15 07:08:54;;;;;;;3.35;1.30;;;;;;;;;;5046867;28;20033;-56
2021/09/15 07:11:21;;;;;;;8.77;1.40;;;;;;;;;;5046248;28;20043;-56
2021/09/15 07:13:47;;;;;;;5.80;1.30;;;;;;;;;;5047497;28;20036;-56
2021/09/15 07:16:13;;;;;;;2.78;1.10;;;;;;;;;;5049363;28;20067;-56
2021/09/15 07:18:39;;;;;;;5.25;1.00;;;;;;;;;;5047273;28;20044;-56
2021/09/15 07:21:04;;;;;;;4.13;1.30;;;;;;;;;;5046056;28;20630;-56
2021/09/15 07:23:30;;;;;;;3.83;1.17;;;;;;;;;;5046253;28;20570;-55
2021/09/15 07:25:56;;;;;;;5.68;1.42;;;;;;;;;;5047247;28;20045;-55
2021/09/15 07:28:22;;;;;;;5.45;1.60;;;;;;;;;;5048265;28;20041;-55
2021/09/15 07:30:48;;;;;;;4.47;1.80;;;;;;;;;;5046775;28;20071;-56
2021/09/15 07:33:14;;;;;;;8.40;1.90;;;;;;;;;;5047895;28;20045;-55
2021/09/15 07:35:40;;;;;;;5.38;1.40;;;;;;;;;;5045870;28;20041;-54
2021/09/15 07:38:06;;;;;;;3.83;1.20;;;;;;;;;;5047472;28;20066;-56
2021/09/15 07:40:32;;;;;;;3.72;1.30;;;;;;;;;;5045534;28;20120;-53
2021/09/15 07:42:59;;;;;;;3.50;1.15;;;;;;;;;;5047130;28;20052;-55
2021/09/15 07:45:25;;;;;;;6.75;1.58;;;;;;;;;;5046870;28;20116;-56
2021/09/15 07:47:51;;;;;;;9.65;1.60;;;;;;;;;;5047219;28;20040;-56
2021/09/15 07:50:17;;;;;;;6.38;1.80;;;;;;;;;;5046566;28;20032;-54
2021/09/15 07:52:43;;;;;;;5.15;1.50;;;;;;;;;;5048385;28;20079;-56
2021/09/15 07:55:09;;;;;;;6.03;1.45;;;;;;;;;;5048630;28;20068;-56
2021/09/15 07:57:35;;;;;;;4.60;1.20;;;;;;;;;;5045908;28;20056;-56
2021/09/15 08:00:01;;;;;;;6.13;1.40;;;;;;;;;;5046575;28;20044;-57
2021/09/15 08:02:27;;;;;;;3.65;1.23;;;;;;;;;;5045967;28;20047;-56
2021/09/15 08:04:53;;;;;;;5.60;1.58;;;;;;;;;;5047752;28;20531;-55
2021/09/15 08:07:19;;;;;;;5.70;1.60;;;;;;;;;;5047466;28;20037;-55
2021/09/15 08:09:44;;;;;;;5.22;1.98;;;;;;;;;;5048261;28;20148;-55
2021/09/15 08:12:10;;;;;;;3.80;1.20;;;;;;;;;;5048340;28;20105;-56
2021/09/15 08:14:36;;;;;;;4.85;1.27;;;;;;;;;;5046098;28;20041;-56
2021/09/15 08:17:02;;;;;;;6.88;1.45;;;;;;;;;;5046316;28;20736;-55
2021/09/15 08:19:28;;;;;;;5.30;1.42;;;;;;;;;;5046530;28;20037;-55
2021/09/15 08:21:54;;;;;;;6.25;1.40;;;;;;;;;;5047451;28;20056;-56
2021/09/15 08:24:20;;;;;;;6.85;1.40;;;;;;;;;;5047122;28;20036;-56
2021/09/15 08:26:46;;;;;;;6.47;1.30;;;;;;;;;;5049577;28;20033;-56
2021/09/15 08:29:11;;;;;;;4.95;1.15;;;;;;;;;;5047886;28;20033;-57
2021/09/15 08:31:37;;;;;;;4.68;1.20;;;;;;;;;;5049067;28;20628;-56
2021/09/15 08:34:03;;;;;;;3.22;1.23;;;;;;;;;;5051271;28;20051;-56
2021/09/15 08:36:29;;;;;;;5.05;1.60;;;;;;;;;;5052630;28;20041;-56
2021/09/15 08:38:55;;;;;;;3.20;1.27;;;;;;;;;;5052557;28;22305;-55
2021/09/15 08:41:20;;;;;;;3.25;1.38;;;;;;;;;;5049955;28;20098;-56
2021/09/15 08:43:46;;;;;;;5.10;1.70;;;;;;;;;;5051830;28;20128;-56
2021/09/15 08:46:13;;;;;;;7.68;1.83;;;;;;;;;;5052645;28;20489;-56
2021/09/15 08:48:40;;;;;;;7.72;2.10;;;;;;;;;;5053158;28;20067;-56
2021/09/15 08:51:12;;;;;;;5.50;1.95;;;;;;;;;;5052514;28;20032;-56
2021/09/15 08:53:38;;;;;;;7.07;1.98;;;;;;;;;;5050725;28;20074;-56
2021/09/15 08:56:05;;;;;;;6.95;1.73;;;;;;;;;;5051699;28;20039;-55
2021/09/15 08:58:30;;;;;;;5.75;1.90;;;;;;;;;;5033027;28;20048;-56
2021/09/15 09:01:13;;;;;;;9.07;2.20;;;;;;;;;;5052121;28;20040;-55
2021/09/15 09:03:40;;;;;;;5.40;2.00;;;;;;;;;;5051339;28;20132;-55
2021/09/15 09:06:09;;;;;;;8.55;2.00;;;;;;;;;;5050482;28;20045;-56
2021/09/15 09:08:37;;;;;;;5.03;1.85;;;;;;;;;;5039130;28;20584;-56
2021/09/15 09:11:04;;;;;;;5.15;2.08;;;;;;;;;;5049342;28;20045;-54
2021/09/15 09:13:30;;;;;;;5.78;1.90;;;;;;;;;;5049155;28;20044;-54
2021/09/15 09:15:55;;;;;;;5.35;2.08;;;;;;;;;;5051295;28;20035;-56
2021/09/15 09:18:21;;;;;;;7.95;2.60;;;;;;;;;;5049933;28;20056;-53
2021/09/15 09:20:47;;;;;;;3.60;1.60;;;;;;;;;;5051374;28;20041;-56
2021/09/15 09:23:17;;;;;;;3.50;1.27;;;;;;;;;;5050421;28;20608;-56
2021/09/15 09:25:42;;;;;;;5.38;1.45;;;;;;;;;;5048511;28;20198;-57
2021/09/15 09:28:23;;;;;;;8.65;1.38;;;;;;;;;;5050463;28;20036;-56
2021/09/15 09:30:50;;;;;;;3.42;1.30;;;;;;;;;;5049443;28;20844;-57
2021/09/15 09:33:16;;;;;;;4.78;1.48;;;;;;;;;;5049657;28;20047;-56
2021/09/15 09:35:49;;;;;;;4.93;1.08;;;;;;;;;;5050352;28;20041;-56
2021/09/15 09:38:16;;;;;;;5.40;1.08;;;;;;;;;;5052973;28;20091;-56
2021/09/15 09:40:54;;;;;;;3.50;1.10;;;;;;;;;;5048957;28;20041;-56
2021/09/15 09:43:20;;;;;;;3.72;1.00;;;;;;;;;;5048333;28;20094;-55
2021/09/15 09:45:47;;;;;;;3.28;0.93;;;;;;;;;;5050885;28;20059;-56
2021/09/15 09:48:27;;;;;;;2.58;0.98;;;;;;;;;;5049804;28;20040;-56
2021/09/15 09:50:52;;;;;;;2.92;0.95;;;;;;;;;;5048186;28;20488;-56
2021/09/15 09:53:18;;;;;;;3.00;1.10;;;;;;;;;;5048490;28;20045;-56
2021/09/15 09:55:44;;;;;;;2.30;0.82;;;;;;;;;;5048515;28;20044;-55
2021/09/15 09:58:11;;;;;;;2.53;0.65;;;;;;;;;;5048288;28;20044;-56
2021/09/15 10:00:37;;;;;;;2.30;0.77;;;;;;;;;;5048292;28;20069;-55
2021/09/15 10:03:04;;;;;;;2.30;0.80;;;;;;;;;;5049293;28;20045;-54
2021/09/15 10:05:30;;;;;;;3.40;0.82;;;;;;;;;;5048716;28;20056;-55
2021/09/15 10:07:56;;;;;;;1.67;0.63;;;;;;;;;;5048252;28;20550;-56
2021/09/15 10:10:22;;;;;;;1.85;0.40;;;;;;;;;;5029623;28;20049;-56
2021/09/15 10:12:54;;;;;;;1.30;0.40;;;;;;;;;;5048837;28;20113;-56
2021/09/15 10:15:20;;;;;;;8.90;1.25;;;;;;;;;;5048589;28;20040;-56
2021/09/15 10:17:48;;;;;;;7.28;0.82;;;;;;;;;;5031265;28;20060;-56
2021/09/15 10:20:14;;;;;;;3.72;0.95;;;;;;;;;;5049009;28;20036;-56
2021/09/15 10:22:48;;;;;;;4.05;0.70;;;;;;;;;;5047910;28;20116;-53
2021/09/15 10:25:14;;;;;;;1.45;0.50;;;;;;;;;;5048452;28;20055;-52
2021/09/15 10:27:59;;;;;;;5.97;0.90;;;;;;;;;;5050500;28;20040;-56
2021/09/15 10:30:42;;;;;;;1.65;0.60;;;;;;;;;;5048378;28;20071;-56
2021/09/15 10:33:08;;;;;;;1.40;0.43;;;;;;;;;;5051896;28;20136;-56
2021/09/15 10:35:44;;;;;;;2.15;0.75;;;;;;;;;;5047811;28;22041;-56
2021/09/15 10:38:10;;;;;;;3.33;0.70;;;;;;;;;;5050523;28;20048;-56
2021/09/15 10:40:37;;;;;;;1.65;0.65;;;;;;;;;;5048214;28;20044;-56
2021/09/15 10:43:03;;;;;;;3.40;0.85;;;;;;;;;;5048813;28;20806;-55
2021/09/15 10:45:30;;;;;;;3.17;0.65;;;;;;;;;;5048541;28;20135;-56
2021/09/15 10:47:58;;;;;;;1.85;0.60;;;;;;;;;;5050177;28;20672;-55
2021/09/15 10:50:31;;;;;;;1.75;0.70;;;;;;;;;;5048950;28;20036;-56
2021/09/15 10:53:16;;;;;;;4.20;0.57;;;;;;;;;;5052070;28;20060;-53
2021/09/15 10:55:56;;;;;;;2.22;0.70;;;;;;;;;;5048548;28;20062;-56
2021/09/15 10:58:24;;;;;;;1.95;0.80;;;;;;;;;;5049133;28;20060;-56
2021/09/15 11:00:50;;;;;;;0.77;0.45;;;;;;;;;;5047321;28;20041;-55
2021/09/15 11:03:30;;;;;;;2.70;0.60;;;;;;;;;;5050366;28;20048;-56
2021/09/15 11:05:57;;;;;;;0.90;0.40;;;;;;;;;;5048373;28;20087;-57
2021/09/15 11:08:29;;;;;;;2.75;0.70;;;;;;;;;;5049009;28;20083;-56
2021/09/15 11:10:54;;;;;;;1.77;0.70;;;;;;;;;;5054654;28;20058;-56
2021/09/15 11:13:30;;;;;;;0.75;0.35;;;;;;;;;;5052604;28;20409;-57
2021/09/15 11:15:56;;;;;;;1.35;0.55;;;;;;;;;;5052802;28;20041;-57
2021/09/15 11:18:23;;;;;;;1.52;0.45;;;;;;;;;;5050166;28;20068;-57
2021/09/15 11:20:56;;;;;;;2.20;0.75;;;;;;;;;;5047789;28;21938;-56
2021/09/15 11:23:26;;;;;;;2.58;0.70;;;;;;;;;;5047708;28;20071;-57
2021/09/15 11:25:52;;;;;;;2.90;0.50;;;;;;;;;;5047117;28;20045;-56
2021/09/15 11:28:19;;;;;;;1.58;0.40;;;;;;;;;;5048163;28;20040;-56
2021/09/15 11:31:05;;;;;;;1.38;0.60;;;;;;;;;;5048373;28;20527;-56
2021/09/15 11:33:32;;;;;;;1.40;0.50;;;;;;;;;;5045118;28;20032;-57
2021/09/15 11:36:02;;;;;;;0.63;0.30;;;;;;;;;;5048513;28;20048;-56
2021/09/15 11:38:31;;;;;;;1.63;0.52;;;;;;;;;;5048586;28;20033;-57
2021/09/15 11:41:10;;;;;;;0.80;0.40;;;;;;;;;;5048517;28;20053;-56
2021/09/15 11:43:36;;;;;;;0.80;0.40;;;;;;;;;;5046546;28;20049;-56
2021/09/15 11:46:02;;;;;;;1.02;0.50;;;;;;;;;;5047467;28;20595;-56
2021/09/15 11:48:29;;;;;;;0.85;0.38;;;;;;;;;;5048146;28;20486;-57
2021/09/15 11:50:55;;;;;;;3.40;0.73;;;;;;;;;;5049325;28;20040;-56
2021/09/15 11:53:22;;;;;;;0.88;0.38;;;;;;;;;;5048379;28;20037;-55
2021/09/15 11:55:59;;;;;;;1.33;0.50;;;;;;;;;;5050021;28;20041;-55
2021/09/15 11:58:25;;;;;;;1.58;0.50;;;;;;;;;;5049669;28;20123;-55
2021/09/15 12:00:51;;;;;;;0.85;0.47;;;;;;;;;;5050817;28;20076;-56
2021/09/15 12:03:19;;;;;;;3.42;0.57;;;;;;;;;;5050400;28;20057;-56
2021/09/15 12:05:46;;;;;;;1.50;0.50;;;;;;;;;;5038269;28;20502;-56
2021/09/15 12:08:12;;;;;;;0.75;0.55;;;;;;;;;;5040105;28;20071;-56
2021/09/15 12:10:38;;;;;;;3.10;0.60;;;;;;;;;;5032037;28;20068;-56
2021/09/15 12:13:04;;;;;;;2.38;0.60;;;;;;;;;;5033235;28;20098;-55
2021/09/15 12:15:42;;;;;;;0.95;0.40;;;;;;;;;;5050378;28;20459;-57
2021/09/15 12:18:09;;;;;;;0.60;0.40;;;;;;;;;;5050965;28;20074;-53
2021/09/15 12:20:39;;;;;;;1.00;0.50;;;;;;;;;;5051985;28;20409;-55
2021/09/15 12:23:05;;;;;;;1.27;0.60;;;;;;;;;;5053393;28;20106;-56
2021/09/15 12:25:30;;;;;;;2.00;0.75;;;;;;;;;;5052222;28;20052;-56
2021/09/15 12:27:59;;;;;;;0.85;0.50;;;;;;;;;;5051729;28;20040;-56
2021/09/15 12:30:25;;;;;;;2.70;0.77;;;;;;;;;;5052635;28;20082;-55
2021/09/15 12:32:59;;;;;;;1.83;0.82;;;;;;;;;;5032463;28;20559;-54
2021/09/15 12:35:33;;;;;;;3.10;0.90;;;;;;;;;;5049938;28;20036;-55
2021/09/15 12:38:08;;;;;;;1.77;0.50;;;;;;;;;;5052114;28;20040;-54
2021/09/15 12:40:35;;;;;;;1.05;0.43;;;;;;;;;;5052973;28;20056;-55
2021/09/15 12:43:04;;;;;;;1.65;0.90;;;;;;;;;;5033301;28;20064;-54
2021/09/15 12:45:30;;;;;;;1.33;0.50;;;;;;;;;;5049947;28;20058;-54
2021/09/15 12:47:56;;;;;;;1.23;0.47;;;;;;;;;;5051561;28;20032;-55
2021/09/15 12:50:25;;;;;;;8.15;0.73;;;;;;;;;;5051150;28;20052;-55
2021/09/15 12:53:18;;;;;;;1.00;0.40;;;;;;;;;;5052636;28;20140;-55
2021/09/15 12:55:45;;;;;;;2.03;0.50;;;;;;;;;;5046797;28;20040;-55
2021/09/15 12:58:12;;;;;;;1.27;0.50;;;;;;;;;;5050156;28;20103;-53
2021/09/15 13:00:45;;;;;;;1.27;0.50;;;;;;;;;;5050133;28;20068;-52
2021/09/15 13:03:11;;;;;;;1.15;0.50;;;;;;;;;;5052771;28;20070;-53
2021/09/15 13:05:39;;;;;;;1.33;0.50;;;;;;;;;;5050033;28;20739;-54
2021/09/15 13:08:05;;;;;;;1.27;0.50;;;;;;;;;;5051692;28;20420;-54
2021/09/15 13:10:32;;;;;;;2.05;0.60;;;;;;;;;;5051414;28;20050;-55
2021/09/15 13:12:57;;;;;;;1.98;0.60;;;;;;;;;;5051189;28;20040;-55
2021/09/15 13:15:23;;;;;;;1.25;0.50;;;;;;;;;;5049486;28;20091;-54
2021/09/15 13:17:49;;;;;;;1.30;0.43;;;;;;;;;;5053244;28;20124;-53
2021/09/15 13:20:15;;;;;;;1.00;0.40;;;;;;;;;;5049847;28;20137;-54
2021/09/15 13:22:42;;;;;;;3.58;0.63;;;;;;;;;;5049466;28;20036;-54
2021/09/15 13:25:08;;;;;;;1.20;0.50;;;;;;;;;;5050990;28;20052;-55
2021/09/15 13:27:35;;;;;;;1.67;0.60;;;;;;;;;;5048368;28;20052;-56
2021/09/15 13:30:02;;;;;;;0.45;0.30;;;;;;;;;;5050216;28;20547;-55
2021/09/15 13:32:27;;;;;;;1.77;0.55;;;;;;;;;;5048229;28;20559;-55
2021/09/15 13:34:53;;;;;;;1.13;0.50;;;;;;;;;;5050204;28;20036;-55
2021/09/15 13:37:19;;;;;;;1.23;0.50;;;;;;;;;;5049588;28;20037;-55
2021/09/15 13:39:45;;;;;;;2.45;0.60;;;;;;;;;;5050809;28;20048;-55
2021/09/15 13:42:11;;;;;;;1.70;0.60;;;;;;;;;;5050153;28;20136;-54
2021/09/15 13:44:37;;;;;;;1.27;0.47;;;;;;;;;;5049508;28;20037;-55
2021/09/15 13:47:03;;;;;;;1.27;0.57;;;;;;;;;;5030351;28;20045;-54
2021/09/15 13:49:38;;;;;;;1.50;0.52;;;;;;;;;;5029440;28;20144;-54
2021/09/15 13:52:04;;;;;;;3.50;0.70;;;;;;;;;;5050636;28;20040;-54
2021/09/15 13:54:30;;;;;;;3.15;0.70;;;;;;;;;;5049105;28;20036;-54
2021/09/15 13:56:56;;;;;;;1.65;0.60;;;;;;;;;;5050274;28;20041;-55
2021/09/15 13:59:21;;;;;;;0.55;0.38;;;;;;;;;;5048792;28;22051;-54
2021/09/15 14:01:47;;;;;;;3.53;0.60;;;;;;;;;;5048582;28;20116;-54
2021/09/15 14:04:13;;;;;;;3.13;0.60;;;;;;;;;;5050217;28;20771;-54
2021/09/15 14:06:39;;;;;;;1.13;0.52;;;;;;;;;;5048576;28;20059;-54
2021/09/15 14:09:04;;;;;;;0.93;0.40;;;;;;;;;;5048814;28;20040;-54
2021/09/15 14:11:30;;;;;;;1.75;0.55;;;;;;;;;;5048947;28;21036;-54
2021/09/15 14:13:56;;;;;;;2.40;0.57;;;;;;;;;;5049776;28;20041;-54
2021/09/15 14:16:22;;;;;;;1.55;0.50;;;;;;;;;;5048642;28;20162;-54
2021/09/15 14:18:48;;;;;;;1.17;0.43;;;;;;;;;;5029805;28;20041;-54
2021/09/15 14:21:13;;;;;;;1.40;0.50;;;;;;;;;;5048699;28;20040;-55
2021/09/15 14:23:39;;;;;;;2.53;0.60;;;;;;;;;;5048149;28;20045;-54
2021/09/15 14:26:05;;;;;;;2.17;0.70;;;;;;;;;;5048256;28;20056;-54
2021/09/15 14:28:31;;;;;;;1.60;0.52;;;;;;;;;;5046474;28;20393;-54
2021/09/15 14:30:57;;;;;;;1.92;0.63;;;;;;;;;;5048451;28;20064;-52
2021/09/15 14:33:23;;;;;;;2.00;0.60;;;;;;;;;;5049599;28;20051;-55
2021/09/15 14:35:49;;;;;;;1.60;0.52;;;;;;;;;;5048989;28;20044;-54
2021/09/15 14:38:14;;;;;;;1.95;0.60;;;;;;;;;;5031148;28;20048;-55
2021/09/15 14:40:40;;;;;;;3.95;0.77;;;;;;;;;;5045518;28;20033;-56
2021/09/15 14:43:06;;;;;;;1.60;0.52;;;;;;;;;;5046971;28;20106;-55
2021/09/15 14:45:32;;;;;;;1.73;0.70;;;;;;;;;;5046159;28;20128;-52
2021/09/15 14:47:58;;;;;;;2.28;0.70;;;;;;;;;;5050178;28;20036;-55
2021/09/15 14:50:23;;;;;;;2.78;0.90;;;;;;;;;;5049698;28;20477;-55